createdAt,value
2019-01-21T00:00:51.904Z,90.30
2019-01-21T00:03:22.233Z,90.40
2019-01-21T00:05:52.593Z,90.60
2019-01-21T00:08:22.930Z,90.70
2019-01-21T00:10:53.171Z,90.70
2019-01-21T00:13:23.443Z,90.90
2019-01-21T00:15:53.900Z,90.80
2019-01-21T00:18:24.275Z,91.00
2019-01-21T00:20:54.525Z,91.00
2019-01-21T00:23:24.071Z,90.70
2019-01-21T00:25:54.186Z,90.60
2019-01-21T00:28:24.441Z,90.80
2019-01-21T00:30:54.687Z,90.80
2019-01-21T00:33:25.001Z,90.90
2019-01-21T00:35:55.221Z,91.00
2019-01-21T00:38:25.481Z,91.20
2019-01-21T00:40:55.731Z,91.10
2019-01-21T00:43:26.069Z,91.10
2019-01-21T00:45:56.420Z,91.00
2019-01-21T00:48:26.677Z,91.10
2019-01-21T00:50:56.932Z,91.40
2019-01-21T00:53:27.187Z,91.40
2019-01-21T00:55:57.439Z,91.50
2019-01-21T00:58:27.752Z,91.80
2019-01-21T01:00:58.015Z,91.80
2019-01-21T01:03:28.291Z,91.80
2019-01-21T01:05:58.523Z,91.70
2019-01-21T01:08:28.872Z,91.70
2019-01-21T01:10:59.094Z,91.60
2019-01-21T01:13:28.610Z,91.70
2019-01-21T01:15:58.722Z,91.80
2019-01-21T01:18:28.222Z,91.90
2019-01-21T01:20:57.588Z,92.20
2019-01-21T01:23:27.716Z,92.00
2019-01-21T01:25:57.231Z,92.10
2019-01-21T01:28:26.592Z,92.10
2019-01-21T01:30:56.714Z,92.40
2019-01-21T01:33:26.954Z,92.30
2019-01-21T01:35:56.461Z,92.40
2019-01-21T01:38:25.848Z,92.40
2019-01-21T01:40:55.231Z,92.30
2019-01-21T01:43:24.619Z,92.50
2019-01-21T01:45:54.096Z,92.60
2019-01-21T01:48:23.482Z,92.90
2019-01-21T01:50:52.941Z,93.00
2019-01-21T01:53:22.389Z,92.90
2019-01-21T01:55:51.931Z,92.90
2019-01-21T01:58:21.351Z,93.00
2019-01-21T02:00:50.744Z,93.20
2019-01-21T02:03:20.190Z,93.20
2019-01-21T02:05:49.572Z,93.30
2019-01-21T02:08:19.020Z,93.80
2019-01-21T02:10:48.400Z,93.50
2019-01-21T02:13:17.780Z,93.50
2019-01-21T02:15:47.148Z,93.80
2019-01-21T02:18:16.605Z,93.70
2019-01-21T02:20:46.436Z,94.00
2019-01-21T02:23:16.760Z,94.20
2019-01-21T02:25:49.396Z,94.30
2019-01-21T02:28:24.936Z,94.40
2019-01-21T02:31:16.147Z,94.50
2019-01-21T02:34:09.876Z,94.50
2019-01-21T02:37:02.195Z,94.70
2019-01-21T02:40:03.728Z,94.50
2019-01-21T02:42:36.288Z,94.70
2019-01-21T02:45:18.098Z,95.00
2019-01-21T02:48:00.040Z,95.10
2019-01-21T02:50:27.962Z,95.20
2019-01-21T02:53:25.114Z,95.30
2019-01-21T02:56:12.758Z,95.30
2019-01-21T02:58:47.978Z,95.30
2019-01-21T03:01:26.580Z,95.00
2019-01-21T03:04:15.616Z,94.90
2019-01-21T03:06:48.156Z,94.80
2019-01-21T03:09:20.705Z,94.70
2019-01-21T03:12:02.056Z,94.70
2019-01-21T03:14:57.410Z,94.70
2019-01-21T03:17:41.340Z,94.80
2019-01-21T03:20:19.552Z,94.80
2019-01-21T03:22:58.033Z,95.00
2019-01-21T03:25:49.498Z,95.30
2019-01-21T03:28:38.511Z,95.00
2019-01-21T03:31:38.515Z,95.30
2019-01-21T03:34:40.805Z,95.20
2019-01-21T03:37:28.719Z,95.30
2019-01-21T03:40:19.832Z,95.20
2019-01-21T03:42:58.147Z,95.20
2019-01-21T03:45:56.349Z,94.70
2019-01-21T03:48:28.992Z,94.70
2019-01-21T03:51:22.949Z,94.70
2019-01-21T03:54:01.548Z,94.50
2019-01-21T03:56:34.256Z,94.70
2019-01-21T03:59:15.638Z,95.00
2019-01-21T04:01:48.214Z,95.30
2019-01-21T04:04:35.489Z,95.40
2019-01-21T04:07:08.172Z,95.30
2019-01-21T04:09:57.475Z,95.30
2019-01-21T04:12:35.848Z,95.10
2019-01-21T04:15:27.672Z,94.90
2019-01-21T04:18:24.665Z,94.70
2019-01-21T04:21:21.168Z,94.60
2019-01-21T04:24:10.306Z,94.70
2019-01-21T04:26:58.063Z,94.70
2019-01-21T04:29:51.520Z,94.50
2019-01-21T04:32:29.961Z,94.50
2019-01-21T04:35:06.665Z,94.70
2019-01-21T04:37:45.008Z,94.60
2019-01-21T04:40:23.649Z,94.80
2019-01-21T04:43:05.090Z,94.90
2019-01-21T04:45:49.787Z,95.10
2019-01-21T04:48:32.897Z,95.00
2019-01-21T04:51:20.913Z,95.00
2019-01-21T04:54:13.457Z,94.90
2019-01-21T04:57:05.723Z,94.90
2019-01-21T04:59:44.280Z,95.10
2019-01-21T05:02:16.917Z,95.30
2019-01-21T05:04:49.555Z,95.20
2019-01-21T05:07:39.140Z,95.40
2019-01-21T05:10:23.862Z,95.40
2019-01-21T05:13:17.703Z,95.50
2019-01-21T05:15:52.989Z,95.60
2019-01-21T05:18:41.176Z,95.20
2019-01-21T05:21:20.719Z,95.30
2019-01-21T05:24:18.888Z,95.40
2019-01-21T05:27:12.049Z,95.30
2019-01-21T05:29:44.685Z,95.20
2019-01-21T05:32:35.157Z,95.50
2019-01-21T05:35:17.482Z,95.20
2019-01-21T05:37:58.619Z,95.10
2019-01-21T05:40:40.580Z,95.10
2019-01-21T05:43:35.803Z,95.10
2019-01-21T05:46:26.475Z,95.20
2019-01-21T05:49:23.279Z,95.40
2019-01-21T05:52:13.922Z,95.50
2019-01-21T05:55:23.504Z,95.50
2019-01-21T05:58:21.685Z,95.50
2019-01-21T06:01:00.392Z,95.30
2019-01-21T06:03:49.499Z,95.50
2019-01-21T06:06:37.109Z,95.60
2019-01-21T06:09:21.951Z,95.80
2019-01-21T06:12:03.498Z,95.70
2019-01-21T06:14:54.147Z,95.80
2019-01-21T06:17:44.412Z,95.60
2019-01-21T06:20:25.792Z,95.70
2019-01-21T06:23:14.984Z,95.70
2019-01-21T06:25:50.249Z,95.80
2019-01-21T06:28:28.218Z,96.00
2019-01-21T06:31:09.777Z,95.70
2019-01-21T06:34:00.460Z,95.70
2019-01-21T06:36:38.603Z,95.70
2019-01-21T06:39:20.312Z,95.80
2019-01-21T06:41:55.440Z,95.80
2019-01-21T06:44:52.257Z,95.80
2019-01-21T06:48:00.214Z,95.90
2019-01-21T06:50:47.139Z,95.90
2019-01-21T06:53:34.454Z,95.60
2019-01-21T06:56:18.928Z,95.60
2019-01-21T06:59:06.570Z,95.60
2019-01-21T07:01:44.910Z,95.80
2019-01-21T07:04:46.222Z,95.80
2019-01-21T07:07:33.751Z,95.70
2019-01-21T07:10:12.538Z,95.50
2019-01-21T07:13:03.290Z,95.30
2019-01-21T07:15:41.350Z,95.40
2019-01-21T07:18:13.992Z,95.20
2019-01-21T07:20:52.108Z,95.20
2019-01-21T07:23:53.093Z,95.00
2019-01-21T07:26:42.448Z,95.00
2019-01-21T07:29:17.844Z,94.90
2019-01-21T07:31:56.165Z,94.70
2019-01-21T07:34:37.062Z,94.70
2019-01-21T07:37:26.138Z,94.70
2019-01-21T07:40:18.276Z,94.80
2019-01-21T07:42:50.821Z,94.70
2019-01-21T07:45:33.372Z,94.70
2019-01-21T07:48:21.252Z,94.60
2019-01-21T07:51:02.552Z,94.40
2019-01-21T07:53:51.748Z,94.40
2019-01-21T07:56:32.772Z,94.50
2019-01-21T07:59:14.258Z,94.40
2019-01-21T08:01:55.570Z,94.20
2019-01-21T08:04:39.846Z,94.40
2019-01-21T08:07:27.343Z,94.40
2019-01-21T08:13:18.661Z,94.20
2019-01-21T08:16:00.187Z,94.30
2019-01-21T08:18:38.279Z,94.10
2019-01-21T08:21:20.121Z,94.30
2019-01-21T08:24:04.985Z,94.30
2019-01-21T08:27:03.351Z,94.30
2019-01-21T08:30:01.623Z,94.50
2019-01-21T08:32:37.126Z,94.50
2019-01-21T08:35:15.338Z,94.40
2019-01-21T08:37:59.957Z,94.60
2019-01-21T08:40:41.529Z,94.50
2019-01-21T08:43:29.035Z,94.50
2019-01-21T08:46:13.209Z,94.30
2019-01-21T08:49:00.172Z,94.40
2019-01-21T08:51:47.906Z,94.40
2019-01-21T08:54:23.369Z,94.40
2019-01-21T08:57:05.057Z,94.40
2019-01-21T08:59:43.474Z,94.50
2019-01-21T09:02:28.062Z,94.40
2019-01-21T09:05:23.481Z,94.60
2019-01-21T09:08:19.873Z,94.50
2019-01-21T09:10:58.303Z,94.40
2019-01-21T09:13:49.369Z,94.40
2019-01-21T09:16:51.341Z,94.40
2019-01-21T09:19:39.687Z,94.30
2019-01-21T09:22:12.685Z,94.30
2019-01-21T09:25:00.243Z,94.20
2019-01-21T09:27:43.313Z,94.10
2019-01-21T09:30:44.774Z,94.00
2019-01-21T09:33:51.999Z,94.00
2019-01-21T09:36:57.809Z,94.20
2019-01-21T09:39:36.083Z,94.30
2019-01-21T09:42:18.119Z,94.10
2019-01-21T09:45:07.053Z,94.10
2019-01-21T09:47:35.449Z,94.00
2019-01-21T09:50:05.979Z,93.90
2019-01-21T09:52:36.334Z,93.80
2019-01-21T09:55:09.903Z,93.80
2019-01-21T09:57:39.307Z,93.80
2019-01-21T10:00:14.708Z,93.90
2019-01-21T10:02:47.112Z,93.90
2019-01-21T10:05:18.456Z,94.10
2019-01-21T10:08:02.938Z,94.20
2019-01-21T10:10:38.090Z,93.90
2019-01-21T10:13:22.817Z,94.10
2019-01-21T10:16:10.286Z,94.30
2019-01-21T10:18:58.345Z,94.60
2019-01-21T10:21:30.993Z,94.10
2019-01-21T10:24:15.586Z,94.00
2019-01-21T10:26:53.884Z,94.10
2019-01-21T10:29:35.469Z,94.10
2019-01-21T10:32:07.996Z,94.10
2019-01-21T10:35:07.506Z,94.00
2019-01-21T10:38:13.393Z,94.10
2019-01-21T10:40:48.525Z,94.20
2019-01-21T10:43:44.051Z,93.80
2019-01-21T10:46:45.467Z,93.60
2019-01-21T10:49:57.241Z,93.70
2019-01-21T10:52:42.536Z,93.50
2019-01-21T10:55:31.640Z,93.30
2019-01-21T10:58:10.016Z,93.20
2019-01-21T11:00:59.049Z,93.00
2019-01-21T11:03:37.410Z,93.00
2019-01-21T11:06:15.596Z,93.00
2019-01-21T11:08:56.905Z,93.00
2019-01-21T11:11:41.397Z,93.00
2019-01-21T11:14:38.302Z,93.10
2019-01-21T11:17:21.900Z,93.20
2019-01-21T11:20:12.498Z,93.00
2019-01-21T11:22:53.980Z,93.00
2019-01-21T11:25:44.507Z,93.00
2019-01-21T11:28:28.374Z,92.80
2019-01-21T11:31:23.880Z,92.60
2019-01-21T11:34:08.180Z,92.40
2019-01-21T11:36:43.361Z,92.10
2019-01-21T11:39:36.222Z,91.90
2019-01-21T11:42:20.678Z,91.70
2019-01-21T11:45:09.947Z,91.60
2019-01-21T11:47:45.672Z,91.80
2019-01-21T11:50:21.158Z,91.80
2019-01-21T11:52:53.712Z,91.90
2019-01-21T11:55:35.878Z,91.90
2019-01-21T11:58:28.263Z,91.70
2019-01-21T12:01:22.061Z,91.50
2019-01-21T12:04:05.520Z,91.30
2019-01-21T12:06:38.190Z,91.30
2019-01-21T12:09:15.516Z,90.80
2019-01-21T12:11:53.142Z,90.70
2019-01-21T12:14:37.629Z,90.50
2019-01-21T12:17:22.102Z,90.40
2019-01-21T12:20:00.850Z,90.30
2019-01-21T12:22:39.414Z,90.30
2019-01-21T12:25:15.129Z,90.20
2019-01-21T12:28:07.413Z,89.90
2019-01-21T12:30:57.178Z,89.10
2019-01-21T12:33:49.371Z,87.60
2019-01-21T12:36:24.320Z,86.60
2019-01-21T12:39:17.485Z,86.00
2019-01-21T12:42:05.199Z,85.30
2019-01-21T12:44:52.853Z,84.80
2019-01-21T12:47:34.239Z,84.30
2019-01-21T12:50:35.692Z,83.70
2019-01-21T12:53:08.560Z,83.10
2019-01-21T12:55:56.143Z,82.50
2019-01-21T12:58:36.879Z,82.30
2019-01-21T13:01:32.785Z,82.10
2019-01-21T13:04:13.727Z,82.80
2019-01-21T13:06:49.224Z,82.00
2019-01-21T13:09:39.153Z,81.80
2019-01-21T13:12:26.703Z,81.70
2019-01-21T13:15:27.407Z,81.70
2019-01-21T13:18:34.123Z,82.20
2019-01-21T13:21:34.744Z,81.20
2019-01-21T13:24:15.435Z,80.70
2019-01-21T13:26:58.844Z,80.10
2019-01-21T13:29:36.718Z,79.60
2019-01-21T13:32:32.784Z,79.20
2019-01-21T13:35:17.344Z,78.90
2019-01-21T13:37:52.273Z,78.40
2019-01-21T13:40:48.041Z,77.70
2019-01-21T13:43:31.493Z,77.10
2019-01-21T13:46:24.147Z,76.50
2019-01-21T13:49:11.676Z,76.10
2019-01-21T13:52:12.105Z,75.80
2019-01-21T13:55:08.143Z,75.40
2019-01-21T13:58:06.914Z,75.10
2019-01-21T14:01:04.169Z,75.10
2019-01-21T14:04:04.560Z,75.00
2019-01-21T14:06:45.132Z,74.80
2019-01-21T14:09:57.927Z,74.10
2019-01-21T14:13:06.031Z,73.50
2019-01-21T14:16:07.526Z,72.90
2019-01-21T14:19:06.735Z,72.80
2019-01-21T14:21:53.704Z,72.30
2019-01-21T14:25:06.486Z,72.90
2019-01-21T14:27:46.986Z,73.50
2019-01-21T14:30:46.095Z,74.90
2019-01-21T14:33:45.138Z,74.90
2019-01-21T14:36:28.158Z,75.50
2019-01-21T14:39:27.221Z,75.80
2019-01-21T14:42:11.178Z,75.60
2019-01-21T14:45:28.022Z,75.40
2019-01-21T14:48:17.284Z,75.30
2019-01-21T14:51:00.790Z,75.40
2019-01-21T14:54:01.993Z,75.60
2019-01-21T14:56:54.844Z,75.40
2019-01-21T15:00:03.109Z,75.20
2019-01-21T15:02:43.831Z,75.60
2019-01-21T15:05:52.087Z,76.20
2019-01-21T15:08:27.024Z,76.60
2019-01-21T15:11:22.924Z,77.00
2019-01-21T15:14:25.008Z,77.10
2019-01-21T15:17:17.546Z,77.60
2019-01-21T15:19:48.086Z,78.50
2019-01-21T15:22:46.326Z,79.50
2019-01-21T15:25:30.269Z,80.40
2019-01-21T15:28:21.245Z,81.30
2019-01-21T15:31:19.966Z,82.10
2019-01-21T15:34:09.251Z,82.70
2019-01-21T15:37:01.746Z,83.30
2019-01-21T15:39:51.057Z,83.90
2019-01-21T15:42:26.046Z,84.30
2019-01-21T15:45:36.641Z,85.00
2019-01-21T15:48:26.578Z,85.70
2019-01-21T15:51:31.564Z,86.20
2019-01-21T15:54:27.589Z,86.50
2019-01-21T15:57:35.122Z,86.80
2019-01-21T16:00:50.472Z,86.70
2019-01-21T16:03:33.747Z,85.50
2019-01-21T16:06:23.742Z,83.90
2019-01-21T16:09:04.277Z,82.60
2019-01-21T16:12:06.070Z,81.70
2019-01-21T16:14:49.567Z,80.90
2019-01-21T16:17:48.961Z,80.50
2019-01-21T16:20:24.566Z,80.40
2019-01-21T16:23:17.052Z,80.10
2019-01-21T16:25:51.155Z,79.90
2019-01-21T16:28:44.526Z,79.50
2019-01-21T16:31:22.291Z,79.40
2019-01-21T16:34:11.860Z,79.10
2019-01-21T16:37:01.745Z,79.00
2019-01-21T16:39:56.287Z,79.00
2019-01-21T16:42:25.010Z,78.90
2019-01-21T16:44:55.248Z,78.60
2019-01-21T16:47:26.570Z,78.30
2019-01-21T16:49:56.923Z,78.20
2019-01-21T16:52:27.176Z,78.10
2019-01-21T16:54:57.420Z,78.20
2019-01-21T16:57:27.656Z,78.30
2019-01-21T16:59:57.955Z,78.40
2019-01-21T17:02:28.219Z,78.70
2019-01-21T17:04:58.482Z,78.70
2019-01-21T17:07:28.722Z,78.80
2019-01-21T17:09:58.957Z,78.90
2019-01-21T17:12:28.459Z,78.80
2019-01-21T17:14:58.581Z,78.60
2019-01-21T17:17:28.845Z,78.50
2019-01-21T17:19:59.075Z,78.90
2019-01-21T17:22:29.340Z,79.70
2019-01-21T17:24:59.629Z,80.50
2019-01-21T17:27:29.968Z,81.50
2019-01-21T17:30:00.203Z,81.50
2019-01-21T17:32:30.826Z,80.80
2019-01-21T17:35:01.062Z,81.10
2019-01-21T17:37:31.303Z,81.60
2019-01-21T17:40:01.596Z,82.20
2019-01-21T17:42:31.856Z,81.90
2019-01-21T17:45:02.170Z,81.80
2019-01-21T17:47:32.448Z,81.60
2019-01-21T17:50:02.954Z,81.60
2019-01-21T17:52:33.285Z,82.20
2019-01-21T17:55:04.108Z,83.00
2019-01-21T17:57:34.440Z,83.70
2019-01-21T18:00:10.066Z,84.30
2019-01-21T18:02:40.313Z,85.00
2019-01-21T18:05:10.699Z,85.50
2019-01-21T18:07:40.963Z,85.70
2019-01-21T18:10:15.201Z,86.20
2019-01-21T18:12:45.616Z,86.90
2019-01-21T18:15:16.211Z,87.20
2019-01-21T18:17:46.487Z,87.50
2019-01-21T18:20:22.201Z,88.00
2019-01-21T18:22:52.583Z,87.90
2019-01-21T18:25:23.563Z,88.70
2019-01-21T18:27:53.909Z,89.10
2019-01-21T18:30:24.935Z,89.50
2019-01-21T18:32:55.285Z,90.00
2019-01-21T18:35:25.614Z,90.20
2019-01-21T18:37:56.076Z,90.30
2019-01-21T18:40:26.478Z,90.50
2019-01-21T18:42:56.790Z,90.50
2019-01-21T18:45:28.061Z,90.80
2019-01-21T18:47:58.560Z,91.10
2019-01-21T18:50:28.829Z,91.30
2019-01-21T18:52:59.170Z,91.40
2019-01-21T18:55:29.647Z,91.40
2019-01-21T18:57:59.923Z,91.50
2019-01-21T19:00:30.217Z,91.60
2019-01-21T19:03:00.529Z,91.80
2019-01-21T19:05:31.100Z,92.00
2019-01-21T19:08:01.404Z,92.20
2019-01-21T19:10:31.704Z,92.30
2019-01-21T19:13:03.045Z,92.40
2019-01-21T19:15:34.086Z,92.60
2019-01-21T19:18:05.193Z,92.70
2019-01-21T19:20:35.416Z,92.80
2019-01-21T19:23:05.682Z,92.80
2019-01-21T19:25:36.013Z,92.80
2019-01-21T19:28:06.296Z,92.70
2019-01-21T19:30:36.688Z,93.00
2019-01-21T19:33:06.950Z,93.20
2019-01-21T19:35:37.281Z,93.30
2019-01-21T19:38:07.556Z,93.40
2019-01-21T19:40:37.801Z,93.40
2019-01-21T19:43:08.157Z,93.50
2019-01-21T19:45:38.372Z,93.70
2019-01-21T19:48:08.694Z,93.80
2019-01-21T19:50:38.959Z,93.90
2019-01-21T19:53:09.192Z,94.00
2019-01-21T19:55:41.841Z,94.10
2019-01-21T19:58:12.260Z,94.20
2019-01-21T20:00:42.848Z,94.50
2019-01-21T20:03:12.562Z,94.60
2019-01-21T20:05:42.764Z,94.60
2019-01-21T20:08:13.028Z,94.80
2019-01-21T20:10:43.344Z,94.80
2019-01-21T20:13:13.609Z,94.70
2019-01-21T20:15:43.835Z,94.70
2019-01-21T20:18:13.508Z,94.60
2019-01-21T20:20:43.702Z,94.70
2019-01-21T20:23:14.023Z,94.70
2019-01-21T20:25:44.278Z,94.80
2019-01-21T20:28:13.826Z,94.90
2019-01-21T20:30:43.259Z,95.10
2019-01-21T20:33:12.797Z,95.10
2019-01-21T20:35:42.184Z,95.20
2019-01-21T20:38:12.302Z,95.30
2019-01-21T20:40:41.822Z,95.50
2019-01-21T20:43:11.264Z,95.50
2019-01-21T20:45:41.404Z,95.80
2019-01-21T20:48:10.896Z,95.90
2019-01-21T20:50:41.025Z,95.90
2019-01-21T20:53:11.412Z,95.80
2019-01-21T20:55:41.694Z,95.90
2019-01-21T20:58:11.955Z,95.70
2019-01-21T21:00:41.552Z,95.80
2019-01-21T21:03:11.681Z,95.80
2019-01-21T21:05:41.950Z,95.70
2019-01-21T21:08:12.201Z,95.90
2019-01-21T21:10:42.454Z,96.00
2019-01-21T21:13:12.695Z,96.10
2019-01-21T21:15:42.205Z,96.30
2019-01-21T21:18:12.421Z,96.30
2019-01-21T21:20:41.959Z,96.40
2019-01-21T21:23:12.076Z,96.60
2019-01-21T21:25:41.652Z,96.70
2019-01-21T21:28:13.890Z,96.90
2019-01-21T21:30:43.452Z,97.10
2019-01-21T21:33:12.909Z,97.10
2019-01-21T21:35:42.363Z,97.00
2019-01-21T21:38:11.823Z,97.00
2019-01-21T21:40:41.205Z,97.30
2019-01-21T21:43:10.616Z,97.40
2019-01-21T21:45:40.173Z,97.50
2019-01-21T21:48:09.626Z,97.40
2019-01-21T21:50:39.023Z,97.30
2019-01-21T21:53:08.412Z,97.40
2019-01-21T21:55:37.966Z,97.30
2019-01-21T21:58:07.813Z,97.50
2019-01-21T22:00:37.268Z,97.20
2019-01-21T22:03:06.836Z,97.20
2019-01-21T22:05:36.279Z,97.10
2019-01-21T22:08:05.882Z,96.90
2019-01-21T22:10:35.647Z,96.70
2019-01-21T22:13:05.095Z,96.70
2019-01-21T22:15:34.571Z,96.30
2019-01-21T22:18:04.023Z,96.40
2019-01-21T22:20:33.470Z,96.20
2019-01-21T22:23:03.317Z,96.00
2019-01-21T22:25:32.765Z,96.00
2019-01-21T22:28:02.223Z,95.90
2019-01-21T22:30:31.732Z,95.80
2019-01-21T22:33:01.205Z,95.60
2019-01-21T22:35:31.071Z,95.70
2019-01-21T22:38:00.535Z,95.70
2019-01-21T22:40:29.909Z,95.80
2019-01-21T22:42:59.365Z,95.90
2019-01-21T22:45:28.883Z,96.00
2019-01-21T22:47:58.649Z,96.10
2019-01-21T22:50:28.079Z,96.00
2019-01-21T22:52:57.486Z,95.90
2019-01-21T22:55:26.854Z,95.80
2019-01-21T22:57:56.281Z,95.90
2019-01-21T23:00:39.151Z,95.90
2019-01-21T23:03:08.600Z,95.90
2019-01-21T23:05:38.044Z,95.90
2019-01-21T23:08:07.412Z,96.00
2019-01-21T23:10:37.155Z,95.80
2019-01-21T23:13:06.613Z,95.60
2019-01-21T23:15:36.109Z,95.60
2019-01-21T23:18:05.885Z,95.80
2019-01-21T23:20:35.291Z,95.50
2019-01-21T23:23:04.889Z,95.50
2019-01-21T23:25:34.363Z,95.50
2019-01-21T23:28:03.890Z,95.50
2019-01-21T23:30:33.326Z,95.40
2019-01-21T23:33:02.809Z,95.60
2019-01-21T23:35:32.423Z,95.50
2019-01-21T23:38:01.785Z,95.60
2019-01-21T23:40:31.293Z,95.70
2019-01-21T23:43:00.756Z,95.80
2019-01-21T23:45:30.121Z,95.70
2019-01-21T23:47:59.589Z,95.60
2019-01-21T23:50:29.027Z,95.60
2019-01-21T23:52:58.460Z,95.50
2019-01-21T23:55:27.829Z,95.50
2019-01-21T23:57:57.269Z,95.50
